Time;durP1;ratioP1;P1;durP2;ratioP2;P2;SDS_P1;SDS_P2;PMS_P1;PMS_P2;Temp;Humidity;BMP_temperature;BMP_pressure;BME280_temperature;BME280_humidity;BME280_pressure;Samples;Min_cycle;Max_cycle;Signal;HPM_P1;HPM_P2
2022/08/27 00:00:32;;;;;;;40.15;35.72;;;;;;;20.11;100.00;100395.19;5073795;28;20045;-85
2022/08/27 00:03:01;;;;;;;39.58;33.38;;;;;;;19.77;100.00;100391.59;5069284;28;20056;-83
2022/08/27 00:05:31;;;;;;;40.58;32.47;;;;;;;20.31;100.00;100393.50;5074389;28;20132;-85
2022/08/27 00:08:04;;;;;;;40.75;36.58;;;;;;;19.93;100.00;100390.44;5090017;28;20082;-83
2022/08/27 00:10:34;;;;;;;46.92;41.90;;;;;;;20.07;100.00;100386.06;5073248;28;20055;-82
2022/08/27 00:13:02;;;;;;;39.25;34.22;;;;;;;20.31;100.00;100394.31;5073274;28;20048;-85
2022/08/27 00:15:33;;;;;;;37.45;33.67;;;;;;;20.24;100.00;100395.69;5073386;28;20060;-83
2022/08/27 00:18:07;;;;;;;45.72;36.15;;;;;;;19.93;100.00;100398.53;5069554;28;20110;-85
2022/08/27 00:20:36;;;;;;;40.63;36.47;;;;;;;20.36;100.00;100399.69;5079585;28;20048;-83
2022/08/27 00:23:05;;;;;;;41.65;37.13;;;;;;;20.54;100.00;100397.41;5092497;28;20494;-82
2022/08/27 00:25:52;;;;;;;39.15;33.28;;;;;;;20.55;100.00;100394.47;5072840;28;20044;-85
2022/08/27 00:28:20;;;;;;;36.40;30.77;;;;;;;20.63;100.00;100398.44;5060445;28;20053;-82
2022/08/27 00:30:47;;;;;;;37.20;33.78;;;;;;;20.72;100.00;100401.34;5071357;28;20044;-81
2022/08/27 00:33:22;;;;;;;35.97;32.58;;;;;;;20.62;100.00;100398.72;5073446;28;20045;-83
2022/08/27 00:35:55;;;;;;;40.55;33.72;;;;;;;20.83;100.00;100405.59;5072546;28;20056;-83
2022/08/27 00:38:23;;;;;;;41.78;38.20;;;;;;;20.81;100.00;100418.56;5060596;28;20058;-83
2022/08/27 00:40:54;;;;;;;36.13;31.55;;;;;;;20.61;100.00;100414.13;5072809;28;20049;-83
2022/08/27 00:43:26;;;;;;;40.10;33.25;;;;;;;20.57;100.00;100413.88;5072665;28;20117;-82
2022/08/27 00:46:03;;;;;;;39.05;34.75;;;;;;;20.27;100.00;100417.53;5077770;28;20127;-82
2022/08/27 00:48:36;;;;;;;36.78;32.85;;;;;;;19.92;100.00;100426.56;5079494;28;20041;-85
2022/08/27 00:51:06;;;;;;;34.85;31.23;;;;;;;19.94;100.00;100413.63;5084899;28;20048;-85
2022/08/27 00:53:34;;;;;;;41.60;36.97;;;;;;;19.95;100.00;100415.22;5075857;28;20045;-85
2022/08/27 00:56:09;;;;;;;38.13;34.72;;;;;;;20.23;100.00;100408.34;5080247;28;20040;-82
2022/08/27 00:58:50;;;;;;;38.88;34.97;;;;;;;20.13;100.00;100420.00;5057042;28;20045;-83
2022/08/27 01:01:20;;;;;;;36.05;32.65;;;;;;;19.78;100.00;100418.25;5066220;28;20095;-83
2022/08/27 01:03:51;;;;;;;59.30;37.45;;;;;;;19.38;100.00;100419.13;5077240;28;20063;-83
2022/08/27 01:06:20;;;;;;;37.03;33.33;;;;;;;19.78;100.00;100420.94;5090076;28;20418;-82
2022/08/27 01:09:05;;;;;;;40.05;36.03;;;;;;;20.06;100.00;100418.69;5076001;28;20542;-82
2022/08/27 01:11:34;;;;;;;36.83;33.30;;;;;;;19.95;100.00;100415.22;5079244;28;20419;-82
2022/08/27 01:14:09;;;;;;;37.78;33.88;;;;;;;19.99;100.00;100410.09;5077814;28;20465;-82
2022/08/27 01:16:47;;;;;;;38.30;34.83;;;;;;;19.46;100.00;100418.56;5095806;28;20392;-83
2022/08/27 01:19:31;;;;;;;40.25;35.88;;;;;;;19.73;100.00;100417.44;5073553;28;20045;-82
2022/08/27 01:22:07;;;;;;;44.20;35.90;;;;;;;19.82;100.00;100424.72;5073777;28;20090;-82
2022/08/27 01:24:45;;;;;;;42.55;33.33;;;;;;;19.79;100.00;100414.47;5076126;28;20052;-82
2022/08/27 01:27:18;;;;;;;36.55;32.70;;;;;;;19.35;100.00;100417.78;5086054;28;20044;-85
2022/08/27 01:29:47;;;;;;;38.08;34.20;;;;;;;19.62;100.00;100414.75;5092763;28;20037;-84
2022/08/27 01:32:18;;;;;;;42.50;36.88;;;;;;;19.42;100.00;100410.22;5064574;28;20052;-82
2022/08/27 01:34:51;;;;;;;41.47;37.90;;;;;;;19.62;100.00;100413.94;5076319;28;20048;-83
2022/08/27 01:37:24;;;;;;;41.03;36.30;;;;;;;19.82;100.00;100415.81;5056466;28;20435;-83
2022/08/27 01:39:53;;;;;;;36.42;32.88;;;;;;;19.28;100.00;100427.22;5075711;28;20083;-83
2022/08/27 01:42:26;;;;;;;39.72;35.78;;;;;;;19.61;100.00;100420.44;5075755;28;20428;-83
2022/08/27 01:44:57;;;;;;;35.30;31.50;;;;;;;19.64;100.00;100426.09;5075445;28;20054;-83
2022/08/27 01:47:28;;;;;;;41.47;37.20;;;;;;;19.64;100.00;100418.03;5064605;28;20112;-83
2022/08/27 01:49:59;;;;;;;37.03;33.10;;;;;;;19.47;100.00;100417.47;5067742;28;20040;-82
2022/08/27 01:52:30;;;;;;;39.40;31.67;;;;;;;19.12;100.00;100418.31;5071027;28;20053;-83
2022/08/27 01:55:07;;;;;;;40.55;36.22;;;;;;;19.33;100.00;100422.59;5073865;28;20064;-82
2022/08/27 01:57:38;;;;;;;37.00;33.13;;;;;;;19.24;100.00;100426.94;5067490;28;20052;-83
2022/08/27 02:02:48;;;;;;;35.85;32.13;;;;;;;19.43;100.00;100424.50;5116095;22;20671;-82
2022/08/27 02:05:21;;;;;;;40.88;37.33;;;;;;;19.27;100.00;100423.69;5067728;28;20050;-84
2022/08/27 02:07:49;;;;;;;38.90;34.78;;;;;;;19.03;100.00;100428.81;5068501;28;20476;-82
2022/08/27 02:10:21;;;;;;;38.67;34.38;;;;;;;18.97;100.00;100430.72;5077618;28;20044;-84
2022/08/27 02:12:48;;;;;;;39.00;36.00;;;;;;;19.21;100.00;100424.78;5068577;28;20064;-84
2022/08/27 02:15:16;;;;;;;37.90;34.78;;;;;;;19.21;100.00;100422.91;5071915;28;20044;-84
2022/08/27 02:18:01;;;;;;;36.28;32.70;;;;;;;18.29;100.00;100438.06;5064272;28;20052;-84
2022/08/27 02:20:28;;;;;;;40.03;36.60;;;;;;;18.77;100.00;100438.75;5061923;28;20052;-85
2022/08/27 02:22:55;;;;;;;35.17;31.90;;;;;;;18.94;100.00;100439.31;5074504;28;20045;-83
2022/08/27 02:25:25;;;;;;;39.38;35.28;;;;;;;19.09;100.00;100435.84;5073903;28;20044;-84
2022/08/27 02:27:53;;;;;;;41.22;37.00;;;;;;;18.80;100.00;100446.31;5067523;28;20052;-82
2022/08/27 02:30:30;;;;;;;37.75;33.70;;;;;;;18.24;100.00;100446.13;5064249;28;20457;-86
2022/08/27 02:33:01;;;;;;;37.83;33.90;;;;;;;18.67;100.00;100447.59;5066305;28;20447;-83
2022/08/27 02:35:39;;;;;;;35.25;31.92;;;;;;;18.20;100.00;100445.84;5073363;28;20057;-88
2022/08/27 02:38:07;;;;;;;39.63;36.05;;;;;;;18.66;100.00;100439.78;5064292;28;20049;-87
2022/08/27 02:40:37;;;;;;;40.20;33.97;;;;;;;18.25;100.00;100440.50;5057979;28;20049;-84
2022/08/27 02:43:13;;;;;;;38.38;34.58;;;;;;;17.94;100.00;100436.84;5072418;28;20110;-85
2022/08/27 02:45:43;;;;;;;37.70;33.75;;;;;;;17.87;100.00;100440.84;5074581;28;20105;-88
2022/08/27 02:48:16;;;;;;;37.20;33.35;;;;;;;18.55;100.00;100438.97;5068111;28;20452;-81
2022/08/27 02:50:50;;;;;;;35.65;31.88;;;;;;;18.54;100.00;100435.44;5074653;28;20060;-84
2022/08/27 02:53:18;;;;;;;38.92;35.42;;;;;;;18.84;100.00;100433.13;5073289;28;20164;-86
2022/08/27 02:55:55;;;;;;;36.47;33.17;;;;;;;18.90;100.00;100432.03;5074392;28;20542;-87
2022/08/27 02:58:24;;;;;;;41.03;37.20;;;;;;;18.82;100.00;100437.94;5073111;28;20465;-82
2022/08/27 03:00:51;;;;;;;38.70;34.60;;;;;;;18.85;100.00;100440.09;5072014;28;20049;-82
2022/08/27 03:03:20;;;;;;;44.75;37.20;;;;;;;18.74;100.00;100440.09;5066001;28;20117;-84
2022/08/27 03:05:47;;;;;;;41.35;37.58;;;;;;;18.77;100.00;100439.56;5074292;28;20053;-84
2022/08/27 03:08:16;;;;;;;38.88;34.22;;;;;;;18.74;100.00;100440.09;5067914;28;20044;-83
2022/08/27 03:10:44;;;;;;;36.33;32.50;;;;;;;18.39;100.00;100443.47;5074498;28;20048;-84
2022/08/27 03:13:13;;;;;;;39.42;35.17;;;;;;;18.28;100.00;100453.41;5073649;28;20049;-83
2022/08/27 03:15:39;;;;;;;39.22;35.28;;;;;;;18.73;100.00;100451.16;5074803;28;20041;-83
2022/08/27 03:18:18;;;;;;;38.08;34.17;;;;;;;18.60;100.00;100455.09;5057847;28;20044;-87
2022/08/27 03:20:48;;;;;;;40.22;35.15;;;;;;;18.82;100.00;100454.09;5072872;28;20044;-84
2022/08/27 03:23:16;;;;;;;36.47;32.97;;;;;;;18.79;100.00;100457.31;5073695;28;20040;-87
2022/08/27 03:25:44;;;;;;;38.22;34.22;;;;;;;18.59;100.00;100458.88;5074207;28;20052;-87
2022/08/27 03:28:15;;;;;;;36.30;32.85;;;;;;;18.47;100.00;100461.00;5073501;28;20049;-85
2022/08/27 03:30:44;;;;;;;44.58;30.75;;;;;;;18.45;100.00;100469.31;5073745;28;20431;-83
2022/08/27 03:33:12;;;;;;;32.38;28.85;;;;;;;18.72;100.00;100466.41;5070350;28;20080;-87
2022/08/27 03:35:38;;;;;;;36.25;31.23;;;;;;;18.53;100.00;100468.00;5074394;28;20056;-83
2022/08/27 03:38:06;;;;;;;32.53;29.13;;;;;;;18.52;100.00;100469.88;5073930;28;20059;-87
2022/08/27 03:40:33;;;;;;;35.08;29.23;;;;;;;18.72;100.00;100471.00;5074360;28;20053;-83
2022/08/27 03:43:00;;;;;;;32.17;29.13;;;;;;;18.67;100.00;100465.59;5072100;28;20366;-87
2022/08/27 03:45:28;;;;;;;33.55;28.80;;;;;;;18.71;100.00;100474.78;5073658;28;20147;-87
2022/08/27 03:47:55;;;;;;;39.75;32.28;;;;;;;18.78;100.00;100472.66;5065359;28;20040;-88
2022/08/27 03:50:22;;;;;;;33.40;30.25;;;;;;;18.96;100.00;100472.13;5072071;28;20055;-86
2022/08/27 03:52:49;;;;;;;33.38;30.30;;;;;;;19.06;100.00;100475.91;5061823;28;20063;-84
2022/08/27 03:55:16;;;;;;;36.00;31.15;;;;;;;18.99;100.00;100478.88;5071635;28;20511;-84
2022/08/27 03:57:43;;;;;;;33.20;30.00;;;;;;;18.79;100.00;100476.97;5072346;28;20055;-87
2022/08/27 04:00:11;;;;;;;42.05;31.20;;;;;;;18.86;100.00;100482.09;5067409;28;20464;-87
2022/08/27 04:02:41;;;;;;;33.65;30.08;;;;;;;19.05;100.00;100477.81;5064587;28;20075;-85
2022/08/27 04:05:10;;;;;;;36.10;32.65;;;;;;;19.09;100.00;100473.53;5064340;28;20045;-85
2022/08/27 04:07:38;;;;;;;32.90;29.60;;;;;;;19.06;100.00;100476.72;5065625;28;20041;-83
2022/08/27 04:10:08;;;;;;;32.67;28.95;;;;;;;18.99;100.00;100484.25;5065854;28;20443;-83
2022/08/27 04:12:36;;;;;;;38.33;29.90;;;;;;;19.14;100.00;100480.78;5067693;28;20045;-85
2022/08/27 04:15:06;;;;;;;34.25;28.00;;;;;;;19.37;100.00;100482.94;5077323;28;20076;-87
2022/08/27 04:17:33;;;;;;;30.45;27.60;;;;;;;19.33;100.00;100487.22;5070658;28;20052;-84
2022/08/27 04:20:01;;;;;;;31.40;28.33;;;;;;;19.33;100.00;100486.44;5071105;28;20040;-83
2022/08/27 04:22:28;;;;;;;32.75;29.27;;;;;;;18.90;100.00;100486.66;5077691;28;20044;-83
2022/08/27 04:24:55;;;;;;;33.83;30.30;;;;;;;19.42;100.00;100474.84;5075888;28;20067;-87
2022/08/27 04:27:24;;;;;;;31.95;29.05;;;;;;;19.45;100.00;100477.03;5077377;28;20040;-87
2022/08/27 04:29:57;;;;;;;31.38;28.52;;;;;;;19.47;100.00;100484.00;5075709;28;20496;-83
2022/08/27 04:32:25;;;;;;;;;;;;;;;19.54;100.00;100488.03;5067614;28;20462;-87
2022/08/27 04:34:55;;;;;;;31.63;28.27;;;;;;;19.81;100.00;100484.25;5066478;28;20284;-88
2022/08/27 04:37:24;;;;;;;35.05;28.33;;;;;;;19.23;100.00;100485.34;5075593;28;20484;-83
2022/08/27 04:39:51;;;;;;;33.22;27.98;;;;;;;19.78;100.00;100491.00;5073531;28;20045;-83
2022/08/27 04:42:20;;;;;;;30.60;27.77;;;;;;;20.02;100.00;100487.72;5068556;28;20045;-88
2022/08/27 04:44:48;;;;;;;31.27;28.38;;;;;;;20.12;100.00;100495.75;5073353;28;20056;-85
2022/08/27 04:47:16;;;;;;;30.58;27.50;;;;;;;20.16;100.00;100491.44;5071233;28;20075;-83
2022/08/27 04:49:44;;;;;;;30.73;27.73;;;;;;;20.17;100.00;100490.34;5067810;28;20501;-83
2022/08/27 04:52:12;;;;;;;34.30;29.70;;;;;;;22.95;100.00;100487.63;5068732;28;20075;-83
2022/08/27 04:54:42;;;;;;;28.83;26.23;;;;;;;24.56;100.00;100480.63;5063433;28;20065;-86
2022/08/27 04:57:11;;;;;;;26.90;24.65;;;;;;;25.83;100.00;100490.34;5065666;28;20496;-85
2022/08/27 04:59:43;;;;;;;28.17;25.55;;;;;;;26.47;100.00;100485.22;5077708;28;20056;-85
2022/08/27 05:02:10;;;;;;;28.23;25.52;;;;;;;26.39;100.00;100487.97;5079661;28;20064;-83
2022/08/27 05:04:39;;;;;;;27.95;25.33;;;;;;;25.42;100.00;100494.13;5077103;28;20060;-85
2022/08/27 05:07:08;;;;;;;28.63;26.20;;;;;;;21.41;100.00;100496.69;5062104;28;20045;-84
2022/08/27 05:09:38;;;;;;;30.00;26.80;;;;;;;21.27;100.00;100496.47;5071802;28;20424;-84
2022/08/27 05:12:07;;;;;;;30.17;27.35;;;;;;;21.15;100.00;100501.44;5071875;28;20044;-83
2022/08/27 05:14:34;;;;;;;29.25;26.75;;;;;;;20.99;100.00;100498.06;5071670;28;20390;-84
2022/08/27 05:17:02;;;;;;;30.20;27.35;;;;;;;20.98;100.00;100499.16;5072013;28;20051;-85
2022/08/27 05:19:31;;;;;;;29.92;26.23;;;;;;;21.03;100.00;100505.31;5073300;28;20052;-84
2022/08/27 05:22:01;;;;;;;29.35;26.52;;;;;;;21.17;100.00;100501.97;5074379;28;20045;-85
2022/08/27 05:24:40;;;;;;;30.23;27.10;;;;;;;21.33;100.00;100499.97;5073046;28;20068;-84
2022/08/27 05:27:11;;;;;;;28.60;25.55;;;;;;;21.93;100.00;100497.78;5066002;28;20473;-84
2022/08/27 05:29:37;;;;;;;29.88;26.08;;;;;;;21.48;100.00;100497.16;5065973;28;20051;-85
2022/08/27 05:32:10;;;;;;;29.33;26.35;;;;;;;21.65;100.00;100502.94;5074542;28;20056;-83
2022/08/27 05:34:44;;;;;;;28.80;25.80;;;;;;;21.68;100.00;100499.66;5064454;28;20057;-86
2022/08/27 05:37:18;;;;;;;29.20;26.17;;;;;;;22.04;100.00;100507.41;5070210;28;20044;-82
2022/08/27 05:39:45;;;;;;;28.45;25.63;;;;;;;22.09;100.00;100511.97;5073826;28;20052;-81
2022/08/27 05:42:14;;;;;;;28.73;25.23;;;;;;;22.14;100.00;100511.91;5073883;28;20048;-81
2022/08/27 05:44:42;;;;;;;28.17;25.38;;;;;;;22.26;100.00;100508.81;5068330;28;20090;-84
2022/08/27 05:47:12;;;;;;;28.63;25.05;;;;;;;22.44;100.00;100520.78;5072512;28;20124;-83
2022/08/27 05:49:42;;;;;;;28.27;25.17;;;;;;;22.53;100.00;100527.16;5071263;28;20056;-85
2022/08/27 05:52:12;;;;;;;28.65;25.63;;;;;;;22.81;100.00;100533.53;5064067;28;20051;-84
2022/08/27 05:54:39;;;;;;;27.92;25.42;;;;;;;22.84;100.00;100527.53;5075792;28;20114;-82
2022/08/27 05:57:11;;;;;;;29.40;26.83;;;;;;;22.95;100.00;100523.63;5076166;28;20044;-85
2022/08/27 06:02:24;;;;;;;36.78;25.70;;;;;;;23.45;100.00;100531.25;5075205;28;20302;-82
2022/08/27 06:04:53;;;;;;;30.95;24.38;;;;;;;23.46;100.00;100532.88;5075463;28;20048;-84
2022/08/27 06:07:33;;;;;;;28.83;25.70;;;;;;;23.54;100.00;100527.59;5067197;28;20045;-85
2022/08/27 06:10:14;;;;;;;29.02;25.98;;;;;;;23.91;100.00;100528.59;5072833;28;20084;-83
2022/08/27 06:12:42;;;;;;;27.67;25.02;;;;;;;23.87;100.00;100527.56;5070931;28;20048;-85
2022/08/27 06:15:16;;;;;;;34.88;26.80;;;;;;;23.96;100.00;100527.66;5064235;28;20477;-85
2022/08/27 06:17:48;;;;;;;33.90;29.92;;;;;;;24.13;100.00;100527.09;5074408;28;20092;-82
2022/08/27 06:20:15;;;;;;;44.53;40.17;;;;;;;24.22;100.00;100536.13;5075271;28;20056;-82
2022/08/27 06:22:44;;;;;;;44.05;40.15;;;;;;;24.33;100.00;100523.97;5075532;28;20070;-86
2022/08/27 06:25:12;;;;;;;32.90;25.45;;;;;;;24.44;100.00;100530.03;5064628;28;20128;-83
2022/08/27 06:27:45;;;;;;;30.92;27.73;;;;;;;24.58;100.00;100530.81;5073792;28;21535;-85
2022/08/27 06:30:16;;;;;;;39.00;27.30;;;;;;;24.86;100.00;100538.91;5074215;28;20443;-87
2022/08/27 06:32:47;;;;;;;41.35;29.00;;;;;;;24.99;100.00;100538.03;5074910;28;20044;-83
2022/08/27 06:35:15;;;;;;;35.72;29.05;;;;;;;25.09;100.00;100534.31;5075191;28;20091;-83
2022/08/27 06:37:53;;;;;;;42.08;28.05;;;;;;;25.94;100.00;100537.94;5076507;28;20044;-84
2022/08/27 06:40:21;;;;;;;33.20;27.48;;;;;;;26.69;100.00;100527.94;5077478;28;20062;-84
2022/08/27 06:42:52;;;;;;;40.42;29.52;;;;;;;27.10;100.00;100529.38;5076093;28;20048;-84
2022/08/27 06:45:21;;;;;;;33.58;29.60;;;;;;;27.23;100.00;100533.06;5076867;28;20045;-84
2022/08/27 06:47:48;;;;;;;39.92;28.58;;;;;;;27.67;100.00;100538.47;5077534;28;20056;-84
2022/08/27 06:50:16;;;;;;;37.88;28.27;;;;;;;28.06;100.00;100538.19;5071908;28;20052;-86
2022/08/27 06:52:43;;;;;;;45.97;26.65;;;;;;;28.19;100.00;100535.56;5072216;28;20472;-82
2022/08/27 06:55:28;;;;;;;33.40;25.70;;;;;;;28.09;100.00;100542.19;5069447;28;20048;-85
2022/08/27 06:57:58;;;;;;;41.30;27.30;;;;;;;27.96;100.00;100546.75;5072058;28;20044;-85
2022/08/27 07:00:35;;;;;;;33.33;27.05;;;;;;;27.86;100.00;100544.34;5070665;28;20052;-85
2022/08/27 07:03:04;;;;;;;35.30;26.00;;;;;;;27.98;100.00;100549.13;5053037;28;20118;-83
2022/08/27 07:05:31;;;;;;;47.03;27.45;;;;;;;28.02;100.00;100550.06;5048069;28;20060;-85
2022/08/27 07:08:01;;;;;;;39.97;27.75;;;;;;;28.06;100.00;100543.66;5052043;28;20044;-88
2022/08/27 07:10:29;;;;;;;41.00;27.00;;;;;;;28.25;100.00;100556.09;5055031;28;20049;-84
2022/08/27 07:12:58;;;;;;;38.55;27.92;;;;;;;28.50;100.00;100543.44;5054451;28;20049;-84
2022/08/27 07:15:26;;;;;;;36.13;26.45;;;;;;;28.62;100.00;100551.72;5054978;28;20448;-86
2022/08/27 07:17:54;;;;;;;43.92;26.13;;;;;;;28.38;100.00;100554.25;5055087;28;20481;-83
2022/08/27 07:20:23;;;;;;;37.75;28.55;;;;;;;28.40;100.00;100558.25;5052676;28;20059;-85
2022/08/27 07:22:58;;;;;;;45.63;27.05;;;;;;;28.46;100.00;100543.31;5048565;28;20140;-84
2022/08/27 07:25:30;;;;;;;50.47;29.10;;;;;;;28.52;100.00;100546.66;5053122;28;20052;-86
2022/08/27 07:28:00;;;;;;;35.25;28.10;;;;;;;28.06;100.00;100545.56;5052419;28;20492;-87
2022/08/27 07:30:38;;;;;;;46.20;29.17;;;;;;;28.47;100.00;100546.81;5051912;28;20485;-82
2022/08/27 07:33:10;;;;;;;49.75;28.85;;;;;;;28.65;100.00;100555.72;5051167;28;20048;-86
2022/08/27 07:35:40;;;;;;;39.72;29.58;;;;;;;28.64;100.00;100544.00;5054421;28;20064;-84
2022/08/27 07:38:10;;;;;;;45.72;28.20;;;;;;;28.75;100.00;100545.22;5054750;28;20090;-86
2022/08/27 07:40:37;;;;;;;36.63;28.48;;;;;;;28.59;100.00;100549.66;5050473;28;20049;-83
2022/08/27 07:45:55;;;;;;;45.53;30.02;;;;;;;28.63;100.00;100547.06;5043851;28;20520;-85
2022/08/27 07:48:25;;;;;;;46.70;30.70;;;;;;;29.12;100.00;100537.22;5048406;28;20052;-87
2022/08/27 07:51:04;;;;;;;53.90;31.67;;;;;;;28.64;100.00;100537.72;5049643;28;20049;-85
2022/08/27 07:53:32;;;;;;;57.88;30.13;;;;;;;28.19;100.00;100541.81;5044318;28;20092;-85
2022/08/27 07:56:04;;;;;;;43.55;30.05;;;;;;;27.74;100.00;100546.94;5045150;28;20045;-83
2022/08/27 07:58:31;;;;;;;55.25;29.40;;;;;;;28.60;100.00;100539.53;5048706;28;20136;-87
2022/08/27 08:00:58;;;;;;;56.17;29.92;;;;;;;29.19;100.00;100533.94;5041026;28;20052;-84
2022/08/27 08:03:27;;;;;;;48.08;28.83;;;;;;;29.56;95.84;100537.59;5061427;28;20052;-84
2022/08/27 08:05:54;;;;;;;62.65;31.13;;;;;;;29.49;96.96;100537.34;5069472;28;20040;-84
2022/08/27 08:08:27;;;;;;;50.13;33.67;;;;;;;29.89;93.90;100537.56;5060241;28;20472;-84
2022/08/27 08:10:58;;;;;;;60.92;31.60;;;;;;;29.32;97.74;100535.59;5068974;28;20044;-84
2022/08/27 08:13:28;;;;;;;56.10;31.23;;;;;;;29.28;92.69;100537.38;5071619;28;20037;-85
2022/08/27 08:15:57;;;;;;;54.95;31.63;;;;;;;29.80;84.51;100534.13;5071449;28;20048;-86
2022/08/27 08:18:27;;;;;;;52.00;29.33;;;;;;;30.01;89.03;100535.97;5066404;28;20066;-85
2022/08/27 08:21:00;;;;;;;50.20;27.75;;;;;;;30.86;81.56;100540.59;5068779;28;20063;-87
2022/08/27 08:23:28;;;;;;;55.30;28.90;;;;;;;30.54;78.39;100536.91;5059046;28;20110;-86
2022/08/27 08:25:59;;;;;;;57.00;29.80;;;;;;;30.61;69.01;100531.63;5063971;28;20041;-85
2022/08/27 08:28:32;;;;;;;50.83;29.52;;;;;;;31.11;75.52;100532.31;5062059;28;20049;-84
2022/08/27 08:31:03;;;;;;;39.60;28.42;;;;;;;31.54;73.65;100528.00;5067188;28;20045;-87
2022/08/27 08:33:31;;;;;;;46.85;29.35;;;;;;;31.31;70.54;100528.53;5067993;28;20052;-84
2022/08/27 08:36:09;;;;;;;66.03;31.27;;;;;;;31.13;70.38;100522.56;5066147;28;20450;-87
2022/08/27 08:38:40;;;;;;;42.85;28.40;;;;;;;30.85;65.55;100533.53;5058190;28;20044;-86
2022/08/27 08:41:34;;;;;;;48.70;27.40;;;;;;;31.25;75.45;100528.00;5060529;28;20040;-83
2022/08/27 08:44:16;;;;;;;57.33;28.00;;;;;;;32.11;64.88;100533.00;5063793;28;20473;-86
2022/08/27 08:46:49;;;;;;;43.70;29.42;;;;;;;31.83;62.23;100524.84;5067544;28;20497;-85
2022/08/27 08:49:38;;;;;;;47.22;29.50;;;;;;;32.13;61.29;100524.38;5059966;28;20488;-84
2022/08/27 08:52:29;;;;;;;47.00;29.40;;;;;;;32.01;56.26;100527.25;5068123;28;20055;-83
2022/08/27 08:55:38;;;;;;;51.28;29.50;;;;;;;32.66;51.86;100530.31;5065256;28;20045;-82
2022/08/27 08:58:12;;;;;;;48.40;30.88;;;;;;;32.76;55.45;100520.72;5070465;28;20073;-84
2022/08/27 09:00:52;;;;;;;46.65;29.92;;;;;;;32.70;48.58;100535.91;5076377;28;20061;-85
2022/08/27 09:03:19;;;;;;;53.53;28.20;;;;;;;32.77;48.68;100523.09;5027234;28;20112;-84
2022/08/27 09:05:53;;;;;;;49.22;29.38;;;;;;;32.35;48.13;100525.69;5029194;28;20042;-84
2022/08/27 09:08:26;;;;;;;55.85;30.38;;;;;;;32.02;55.28;100524.16;5023877;28;20132;-84
2022/08/27 09:10:59;;;;;;;50.55;28.90;;;;;;;32.08;45.71;100519.97;5019470;28;20060;-84
2022/08/27 09:13:37;;;;;;;52.85;29.88;;;;;;;31.13;48.11;100519.81;5020927;28;20050;-85
2022/08/27 09:16:12;;;;;;;48.83;30.10;;;;;;;32.53;51.34;100509.59;5022297;28;20403;-86
2022/08/27 09:18:43;;;;;;;51.60;30.70;;;;;;;31.75;48.77;100519.53;5022347;28;20046;-84
2022/08/27 09:21:22;;;;;;;50.05;29.35;;;;;;;32.02;52.37;100517.88;5029575;28;20099;-83
2022/08/27 09:24:02;;;;;;;46.28;28.08;;;;;;;32.16;56.40;100515.44;5027520;28;20057;-84
2022/08/27 09:26:32;;;;;;;52.08;31.83;;;;;;;33.39;44.82;100503.88;5022075;28;20107;-85
2022/08/27 09:29:19;;;;;;;61.40;28.70;;;;;;;33.92;46.24;100512.28;5037506;28;20041;-86
2022/08/27 09:31:59;;;;;;;42.28;27.13;;;;;;;33.09;48.45;100506.47;5036831;28;20045;-84
2022/08/27 09:34:36;;;;;;;43.78;28.35;;;;;;;33.78;42.30;100514.81;5037112;28;20053;-82
2022/08/27 09:37:10;;;;;;;51.95;28.45;;;;;;;33.03;50.08;100527.19;5029952;28;20056;-83
2022/08/27 09:39:48;;;;;;;51.25;29.30;;;;;;;34.52;46.68;100513.56;5030964;28;20052;-82
2022/08/27 09:42:42;;;;;;;44.97;28.50;;;;;;;33.87;45.45;100514.56;5022898;28;20466;-86
2022/08/27 09:45:13;;;;;;;56.13;28.35;;;;;;;34.23;41.96;100513.16;5019671;28;20087;-83
2022/08/27 09:47:48;;;;;;;60.55;28.10;;;;;;;34.50;40.15;100508.44;5029087;28;20041;-83
2022/08/27 09:50:24;;;;;;;45.33;27.25;;;;;;;34.61;38.20;100498.34;5030277;28;20106;-86
2022/08/27 09:52:57;;;;;;;48.17;26.90;;;;;;;34.58;37.40;100503.81;5020968;28;20137;-87
2022/08/27 09:55:35;;;;;;;49.75;26.77;;;;;;;34.30;40.96;100499.47;5032423;28;20063;-85
2022/08/27 09:58:06;;;;;;;48.55;28.92;;;;;;;33.36;38.51;100501.88;5022746;28;20061;-85
2022/08/27 10:00:37;;;;;;;60.78;30.33;;;;;;;33.80;38.15;100501.47;5026959;28;20049;-82
2022/08/27 10:03:06;;;;;;;61.15;31.75;;;;;;;33.59;38.22;100507.41;5065632;28;20405;-82
2022/08/27 10:05:50;;;;;;;45.05;31.13;;;;;;;32.60;40.52;100501.53;5071504;28;20053;-82
2022/08/27 10:08:25;;;;;;;53.10;30.80;;;;;;;33.32;47.54;100498.25;5075108;28;20491;-82
2022/08/27 10:11:00;;;;;;;53.25;31.00;;;;;;;33.82;44.05;100498.34;5072046;28;20110;-85
2022/08/27 10:13:33;;;;;;;38.50;29.17;;;;;;;34.16;40.79;100497.34;5066768;28;20055;-81
2022/08/27 10:16:21;;;;;;;56.92;31.40;;;;;;;34.32;42.50;100502.66;5058143;28;20151;-84
2022/08/27 10:19:04;;;;;;;52.85;37.33;;;;;;;34.99;37.47;100496.44;5075985;28;20045;-83
2022/08/27 10:21:44;;;;;;;54.47;35.90;;;;;;;35.45;34.52;100503.63;5076488;28;20072;-83
2022/08/27 10:24:31;;;;;;;46.42;33.00;;;;;;;34.97;34.26;100506.25;5071895;28;20063;-83
2022/08/27 10:27:10;;;;;;;52.22;30.67;;;;;;;35.19;34.34;100505.38;5072576;28;20041;-83
2022/08/27 10:29:49;;;;;;;47.88;32.42;;;;;;;35.06;43.38;100507.56;5058181;28;20401;-87
2022/08/27 10:32:34;;;;;;;67.93;35.67;;;;;;;35.84;33.57;100504.00;5070249;28;20044;-83
2022/08/27 10:35:09;;;;;;;49.28;33.80;;;;;;;35.63;33.60;100495.53;5056378;28;20049;-84
2022/08/27 10:37:55;;;;;;;46.58;34.75;;;;;;;35.63;36.15;100504.59;5074061;28;20071;-82
2022/08/27 10:40:32;;;;;;;38.47;31.73;;;;;;;35.60;40.82;100510.09;5077720;28;20052;-83
2022/08/27 10:43:34;;;;;;;51.55;34.78;;;;;;;34.21;44.81;100512.75;5074836;28;20079;-84
2022/08/27 10:46:14;;;;;;;48.05;33.53;;;;;;;35.20;36.64;100512.47;5077423;28;20457;-84
2022/08/27 10:48:56;;;;;;;51.95;33.00;;;;;;;34.98;33.82;100505.06;5059279;28;20056;-84
2022/08/27 10:51:31;;;;;;;47.22;35.33;;;;;;;35.83;32.97;100499.66;5074844;28;20063;-87
2022/08/27 10:54:10;;;;;;;52.25;34.75;;;;;;;35.42;40.78;100507.94;5076508;28;20044;-85
2022/08/27 10:56:47;;;;;;;58.75;32.47;;;;;;;35.02;36.59;100501.19;5074565;28;20055;-84
2022/08/27 10:59:33;;;;;;;49.45;33.65;;;;;;;36.43;32.00;100501.22;5071905;28;20420;-82
2022/08/27 11:02:10;;;;;;;55.22;34.47;;;;;;;35.88;33.91;100504.00;5060072;28;20057;-85
2022/08/27 11:04:43;;;;;;;59.17;30.02;;;;;;;35.15;37.81;100504.50;5074488;28;20552;-83
2022/08/27 11:07:19;;;;;;;57.75;34.83;;;;;;;36.29;32.49;100506.69;5066933;28;20045;-84
2022/08/27 11:09:51;;;;;;;48.78;32.80;;;;;;;36.45;32.54;100491.34;5065462;28;20040;-84
2022/08/27 11:12:26;;;;;;;;;;;;;;;34.59;39.86;100506.22;5068175;28;20473;-86
2022/08/27 11:14:59;;;;;;;52.22;35.05;;;;;;;35.95;34.22;100504.88;5069604;28;19924;-85
2022/08/27 11:17:42;;;;;;;55.10;33.47;;;;;;;35.92;29.62;100497.34;5065484;28;20044;-86
2022/08/27 11:20:22;;;;;;;60.38;29.17;;;;;;;36.34;29.05;100496.06;5071399;28;20056;-87
2022/08/27 11:22:53;;;;;;;54.05;31.02;;;;;;;35.69;36.41;100491.25;5064994;28;20052;-82
2022/08/27 11:25:45;;;;;;;62.83;32.30;;;;;;;35.70;31.46;100493.59;5066065;28;20037;-89
2022/08/27 11:28:16;;;;;;;65.03;33.67;;;;;;;35.61;36.73;100493.13;5066958;28;20048;-84
2022/08/27 11:30:57;;;;;;;59.20;32.70;;;;;;;36.62;28.84;100491.88;5066827;28;20048;-83
2022/08/27 11:33:33;;;;;;;54.70;32.95;;;;;;;36.53;31.61;100500.53;5058469;28;20048;-86
2022/08/27 11:36:46;;;;;;;57.97;35.22;;;;;;;36.20;33.63;100499.53;5069737;28;20072;-86